createdAt,value
2017-08-02T00:01:53.285Z,1008.34
2017-08-02T00:02:33.680Z,1008.31
2017-08-02T00:03:14.089Z,1008.28
2017-08-02T00:03:54.524Z,1008.29
2017-08-02T00:04:34.935Z,1008.28
2017-08-02T00:05:15.336Z,1008.26
2017-08-02T00:05:55.760Z,1008.24
2017-08-02T00:06:36.191Z,1008.26
2017-08-02T00:07:16.601Z,1008.25
2017-08-02T00:07:57.005Z,1008.23
2017-08-02T00:08:37.359Z,1008.27
2017-08-02T00:09:17.758Z,1008.28
2017-08-02T00:09:58.138Z,1008.27
2017-08-02T00:11:52.270Z,1008.27
2017-08-02T00:12:37.197Z,1008.23
2017-08-02T00:13:17.606Z,1008.25
2017-08-02T00:13:58.014Z,1008.24
2017-08-02T00:14:38.413Z,1008.23
2017-08-02T00:15:18.855Z,1008.22
2017-08-02T00:17:37.615Z,1008.23
2017-08-02T00:18:18.052Z,1008.25
2017-08-02T00:20:30.974Z,1008.19
2017-08-02T00:21:11.513Z,1008.19
2017-08-02T00:21:51.923Z,1008.22
2017-08-02T00:22:32.316Z,1008.17
2017-08-02T00:23:12.759Z,1008.19
2017-08-02T00:23:53.136Z,1008.19
2017-08-02T00:24:33.566Z,1008.16
2017-08-02T00:26:26.193Z,1008.17
2017-08-02T00:27:06.361Z,1008.16
2017-08-02T00:27:46.758Z,1008.17
2017-08-02T00:28:27.162Z,1008.19
2017-08-02T00:29:07.574Z,1008.21
2017-08-02T00:29:47.940Z,1008.18
2017-08-02T00:31:52.878Z,1008.17
2017-08-02T00:32:30.225Z,1008.17
2017-08-02T00:33:10.582Z,1008.18
2017-08-02T00:33:50.945Z,1008.18
2017-08-02T00:34:31.385Z,1008.2
2017-08-02T00:35:11.767Z,1008.18
2017-08-02T00:35:52.229Z,1008.18
2017-08-02T00:36:32.639Z,1008.15
2017-08-02T00:37:13.085Z,1008.12
2017-08-02T00:37:53.506Z,1008.11
2017-08-02T00:38:33.854Z,1008.1
2017-08-02T00:39:14.313Z,1008.09
2017-08-02T00:39:54.716Z,1008.13
2017-08-02T00:40:35.121Z,1008.07
2017-08-02T00:41:15.527Z,1008.09
2017-08-02T00:41:55.975Z,1008.07
2017-08-02T00:42:36.434Z,1008.12
2017-08-02T00:43:16.822Z,1008.04
2017-08-02T00:43:57.243Z,1008.04
2017-08-02T00:44:37.633Z,1008.02
2017-08-02T00:45:18.053Z,1008.01
2017-08-02T00:45:58.508Z,1008.05
2017-08-02T00:46:38.916Z,1008.06
2017-08-02T00:47:19.318Z,1008.05
2017-08-02T00:47:59.787Z,1008.04
2017-08-02T00:48:40.187Z,1008.03
2017-08-02T00:52:15.833Z,1008.04
2017-08-02T00:56:29.159Z,1008.07
2017-08-02T00:57:23.490Z,1008.07
2017-08-02T00:58:17.746Z,1008.05
2017-08-02T00:59:10.907Z,1008.04
2017-08-02T01:00:05.688Z,1008.02
2017-08-02T01:00:58.491Z,1008.02
2017-08-02T01:01:52.484Z,1008.03
2017-08-02T01:02:44.899Z,1008.02
2017-08-02T01:03:42.984Z,1008.02
2017-08-02T01:04:37.585Z,1008.01
2017-08-02T01:05:31.416Z,1008.02
2017-08-02T01:06:28.026Z,1008.06
2017-08-02T01:07:22.379Z,1008.02
2017-08-02T01:08:16.794Z,1008.03
2017-08-02T01:09:11.686Z,1008.04
2017-08-02T01:10:07.014Z,1008.02
2017-08-02T01:11:02.564Z,1008.07
2017-08-02T01:11:56.058Z,1008.08
2017-08-02T01:12:50.495Z,1008.01
2017-08-02T01:13:45.312Z,1008
2017-08-02T01:14:40.975Z,1008.03
2017-08-02T01:15:32.076Z,1008.01
2017-08-02T01:16:26.768Z,1007.99
2017-08-02T01:17:20.444Z,1007.97
2017-08-02T01:18:15.098Z,1007.95
2017-08-02T01:19:10.289Z,1007.96
2017-08-02T01:20:05.867Z,1007.94
2017-08-02T01:20:58.709Z,1007.94
2017-08-02T01:21:55.086Z,1007.92
2017-08-02T01:22:49.562Z,1007.92
2017-08-02T01:23:44.933Z,1007.91
2017-08-02T01:24:40.515Z,1007.92
2017-08-02T01:25:35.288Z,1007.92
2017-08-02T01:26:34.886Z,1007.92
2017-08-02T01:27:28.333Z,1007.96
2017-08-02T01:28:24.258Z,1007.96
2017-08-02T01:29:19.232Z,1007.96
2017-08-02T01:30:11.989Z,1007.96
2017-08-02T01:30:52.949Z,1007.91
2017-08-02T01:31:33.369Z,1007.97
2017-08-02T01:32:13.764Z,1007.96
2017-08-02T01:32:54.181Z,1007.97
2017-08-02T01:33:34.617Z,1007.95
2017-08-02T01:34:15.075Z,1007.92
2017-08-02T01:34:55.443Z,1007.9
2017-08-02T01:35:35.811Z,1007.91
2017-08-02T01:36:16.118Z,1007.87
2017-08-02T01:36:56.547Z,1007.91
2017-08-02T01:37:37.060Z,1007.93
2017-08-02T01:38:17.393Z,1007.94
2017-08-02T01:38:57.803Z,1007.95
2017-08-02T01:39:38.224Z,1007.97
2017-08-02T01:40:18.668Z,1007.94
2017-08-02T01:40:59.038Z,1007.92
2017-08-02T01:41:39.461Z,1007.88
2017-08-02T01:42:19.868Z,1007.87
2017-08-02T01:43:00.188Z,1007.88
2017-08-02T01:43:40.708Z,1007.87
2017-08-02T01:44:21.069Z,1007.86
2017-08-02T01:45:01.511Z,1007.88
2017-08-02T01:45:41.914Z,1007.88
2017-08-02T01:46:22.371Z,1007.91
2017-08-02T01:47:02.966Z,1007.92
2017-08-02T01:47:43.324Z,1007.93
2017-08-02T01:48:23.848Z,1007.94
2017-08-02T01:49:04.260Z,1007.91
2017-08-02T01:49:44.732Z,1007.96
2017-08-02T01:50:25.203Z,1007.92
2017-08-02T01:51:05.496Z,1007.91
2017-08-02T01:51:45.913Z,1007.94
2017-08-02T01:52:26.517Z,1007.9
2017-08-02T01:53:07.047Z,1007.93
2017-08-02T01:53:47.478Z,1007.99
2017-08-02T01:54:28.021Z,1007.95
2017-08-02T01:55:08.629Z,1007.99
2017-08-02T01:55:48.876Z,1007.95
2017-08-02T01:56:29.435Z,1007.96
2017-08-02T01:57:09.848Z,1007.97
2017-08-02T01:57:50.151Z,1007.98
2017-08-02T01:58:30.647Z,1008.01
2017-08-02T01:59:10.980Z,1007.96
2017-08-02T01:59:51.478Z,1007.98
2017-08-02T02:00:31.856Z,1007.98
2017-08-02T02:01:12.275Z,1008.01
2017-08-02T02:01:52.815Z,1008.01
2017-08-02T02:02:33.268Z,1007.98
2017-08-02T02:03:13.634Z,1007.96
2017-08-02T02:03:54.419Z,1007.96
2017-08-02T02:04:34.464Z,1007.95
2017-08-02T02:05:14.821Z,1007.93
2017-08-02T02:05:55.204Z,1007.93
2017-08-02T02:06:35.601Z,1007.95
2017-08-02T02:07:16.020Z,1007.93
2017-08-02T02:07:56.408Z,1007.94
2017-08-02T02:08:36.809Z,1007.93
2017-08-02T02:09:17.236Z,1007.92
2017-08-02T02:09:57.633Z,1007.91
2017-08-02T02:10:38.074Z,1007.92
2017-08-02T02:11:18.409Z,1007.93
2017-08-02T02:11:58.919Z,1007.89
2017-08-02T02:12:39.335Z,1007.92
2017-08-02T02:13:19.697Z,1007.9
2017-08-02T02:14:00.098Z,1007.88
2017-08-02T02:14:40.468Z,1007.89
2017-08-02T02:15:20.870Z,1007.91
2017-08-02T02:16:01.311Z,1007.9
2017-08-02T02:16:41.688Z,1007.9
2017-08-02T02:17:22.125Z,1007.95
2017-08-02T02:18:02.450Z,1007.94
2017-08-02T02:18:42.873Z,1007.92
2017-08-02T02:19:23.317Z,1007.94
2017-08-02T02:20:03.687Z,1007.98
2017-08-02T02:20:44.060Z,1007.99
2017-08-02T02:21:24.459Z,1007.95
2017-08-02T02:22:04.915Z,1007.97
2017-08-02T02:22:45.242Z,1007.98
2017-08-02T02:23:25.690Z,1007.98
2017-08-02T02:24:06.140Z,1007.96
2017-08-02T02:24:46.443Z,1007.97
2017-08-02T02:25:26.883Z,1007.91
2017-08-02T02:26:07.249Z,1007.92
2017-08-02T02:26:47.669Z,1007.92
2017-08-02T02:27:28.087Z,1007.88
2017-08-02T02:28:08.465Z,1007.87
2017-08-02T02:28:48.901Z,1007.86
2017-08-02T02:29:29.373Z,1007.89
2017-08-02T02:30:09.752Z,1007.87
2017-08-02T02:30:50.166Z,1007.86
2017-08-02T02:31:30.626Z,1007.84
2017-08-02T02:32:11.009Z,1007.81
2017-08-02T02:32:51.473Z,1007.8
2017-08-02T02:33:31.755Z,1007.79
2017-08-02T02:34:12.200Z,1007.8
2017-08-02T02:34:53.054Z,1007.76
2017-08-02T02:35:33.406Z,1007.75
2017-08-02T02:36:13.803Z,1007.75
2017-08-02T02:36:54.245Z,1007.74
2017-08-02T02:37:34.755Z,1007.73
2017-08-02T02:38:15.079Z,1007.71
2017-08-02T02:38:55.450Z,1007.72
2017-08-02T02:39:36.055Z,1007.69
2017-08-02T02:40:16.576Z,1007.67
2017-08-02T02:40:56.956Z,1007.63
2017-08-02T02:41:37.544Z,1007.58
2017-08-02T02:42:18.059Z,1007.57
2017-08-02T02:42:58.396Z,1007.57
2017-08-02T02:43:38.829Z,1007.57
2017-08-02T02:44:19.515Z,1007.6
2017-08-02T02:45:00.070Z,1007.64
2017-08-02T02:45:40.659Z,1007.62
2017-08-02T02:46:21.075Z,1007.65
2017-08-02T02:47:01.558Z,1007.65
2017-08-02T02:47:42.069Z,1007.65
2017-08-02T02:48:22.586Z,1007.62
2017-08-02T02:49:02.951Z,1007.62
2017-08-02T02:49:43.641Z,1007.58
2017-08-02T02:50:24.123Z,1007.6
2017-08-02T02:51:04.498Z,1007.58
2017-08-02T02:51:44.784Z,1007.59
2017-08-02T02:52:25.233Z,1007.58
2017-08-02T02:53:05.673Z,1007.57
2017-08-02T02:53:46.025Z,1007.57
2017-08-02T02:54:26.415Z,1007.56
2017-08-02T02:55:06.798Z,1007.57
2017-08-02T02:55:47.230Z,1007.55
2017-08-02T02:56:27.571Z,1007.57
2017-08-02T02:57:08.064Z,1007.58
2017-08-02T02:57:48.451Z,1007.61
2017-08-02T02:58:28.899Z,1007.59
2017-08-02T02:59:09.222Z,1007.63
2017-08-02T02:59:49.582Z,1007.65
2017-08-02T03:00:30.032Z,1007.66
2017-08-02T03:01:10.401Z,1007.65
2017-08-02T03:01:50.871Z,1007.72
2017-08-02T03:02:31.347Z,1007.69
2017-08-02T03:03:11.731Z,1007.7
2017-08-02T03:03:52.132Z,1007.74
2017-08-02T03:04:32.534Z,1007.71
2017-08-02T03:05:12.989Z,1007.75
2017-08-02T03:05:53.418Z,1007.7
2017-08-02T03:06:33.962Z,1007.7
2017-08-02T03:07:14.362Z,1007.67
2017-08-02T03:07:54.820Z,1007.65
2017-08-02T03:08:35.475Z,1007.67
2017-08-02T03:09:15.793Z,1007.65
2017-08-02T03:09:56.192Z,1007.6
2017-08-02T03:10:36.581Z,1007.58
2017-08-02T03:11:17.086Z,1007.59
2017-08-02T03:11:57.753Z,1007.56
2017-08-02T03:12:37.894Z,1007.61
2017-08-02T03:13:18.334Z,1007.57
2017-08-02T03:13:58.643Z,1007.56
2017-08-02T03:14:39.066Z,1007.56
2017-08-02T03:15:19.488Z,1007.59
2017-08-02T03:15:59.902Z,1007.59
2017-08-02T03:16:40.365Z,1007.62
2017-08-02T03:17:20.870Z,1007.56
2017-08-02T03:18:01.242Z,1007.59
2017-08-02T03:18:41.730Z,1007.56
2017-08-02T03:19:22.108Z,1007.54
2017-08-02T03:20:02.545Z,1007.53
2017-08-02T03:20:42.892Z,1007.56
2017-08-02T03:21:23.340Z,1007.5
2017-08-02T03:22:03.771Z,1007.57
2017-08-02T03:22:44.252Z,1007.56
2017-08-02T03:23:24.664Z,1007.61
2017-08-02T03:24:05.102Z,1007.59
2017-08-02T03:24:45.504Z,1007.59
2017-08-02T03:25:25.935Z,1007.6
2017-08-02T03:26:06.348Z,1007.61
2017-08-02T03:26:46.942Z,1007.62
2017-08-02T03:27:27.251Z,1007.6
2017-08-02T03:28:07.768Z,1007.57
2017-08-02T03:28:48.093Z,1007.55
2017-08-02T03:29:28.596Z,1007.55
2017-08-02T03:30:09.154Z,1007.52
2017-08-02T03:30:49.522Z,1007.54
2017-08-02T03:31:29.903Z,1007.54
2017-08-02T03:32:10.581Z,1007.53
2017-08-02T03:32:51.178Z,1007.53
2017-08-02T03:33:31.701Z,1007.52
2017-08-02T03:34:12.097Z,1007.49
2017-08-02T03:34:52.574Z,1007.54
2017-08-02T03:35:32.910Z,1007.52
2017-08-02T03:36:13.513Z,1007.53
2017-08-02T03:36:53.938Z,1007.54
2017-08-02T03:37:34.312Z,1007.58
2017-08-02T03:38:14.750Z,1007.6
2017-08-02T03:38:55.180Z,1007.6
2017-08-02T03:39:35.575Z,1007.62
2017-08-02T03:40:16.098Z,1007.63
2017-08-02T03:40:56.546Z,1007.66
2017-08-02T03:41:36.876Z,1007.6
2017-08-02T03:42:17.397Z,1007.68
2017-08-02T03:42:57.980Z,1007.61
2017-08-02T03:43:38.819Z,1007.64
2017-08-02T03:44:19.411Z,1007.63
2017-08-02T03:44:59.689Z,1007.65
2017-08-02T03:45:40.083Z,1007.61
2017-08-02T03:46:20.438Z,1007.66
2017-08-02T03:47:00.829Z,1007.67
2017-08-02T03:47:41.271Z,1007.65
2017-08-02T03:48:21.673Z,1007.69
2017-08-02T03:49:02.040Z,1007.68
2017-08-02T03:49:42.510Z,1007.71
2017-08-02T03:50:22.961Z,1007.7
2017-08-02T03:51:03.569Z,1007.69
2017-08-02T03:51:44.018Z,1007.7
2017-08-02T03:52:24.357Z,1007.7
2017-08-02T03:53:04.787Z,1007.69
2017-08-02T03:53:45.290Z,1007.71
2017-08-02T03:54:25.718Z,1007.69
2017-08-02T03:55:06.204Z,1007.7
2017-08-02T03:55:46.513Z,1007.7
2017-08-02T03:56:26.850Z,1007.7
2017-08-02T03:57:07.312Z,1007.74
2017-08-02T03:57:47.621Z,1007.74
2017-08-02T03:58:28.122Z,1007.68
2017-08-02T03:59:08.540Z,1007.68
2017-08-02T03:59:49.173Z,1007.74
2017-08-02T04:00:29.593Z,1007.69
2017-08-02T04:01:10.216Z,1007.7
2017-08-02T04:01:50.717Z,1007.73
2017-08-02T04:02:31.294Z,1007.71
2017-08-02T04:03:11.756Z,1007.69
2017-08-02T04:03:52.428Z,1007.72
2017-08-02T04:04:32.893Z,1007.77
2017-08-02T04:05:13.315Z,1007.73
2017-08-02T04:05:53.830Z,1007.7
2017-08-02T04:06:34.486Z,1007.67
2017-08-02T04:07:14.878Z,1007.7
2017-08-02T04:07:55.498Z,1007.75
2017-08-02T04:08:36.136Z,1007.68
2017-08-02T04:09:16.455Z,1007.7
2017-08-02T04:09:56.868Z,1007.76
2017-08-02T04:10:37.502Z,1007.76
2017-08-02T04:11:17.954Z,1007.78
2017-08-02T04:11:58.277Z,1007.82
2017-08-02T04:12:38.782Z,1007.79
2017-08-02T04:13:19.439Z,1007.78
2017-08-02T04:13:59.793Z,1007.83
2017-08-02T04:14:40.297Z,1007.81
2017-08-02T04:15:20.559Z,1007.82
2017-08-02T04:16:01.070Z,1007.77
2017-08-02T04:16:41.375Z,1007.81
2017-08-02T04:17:21.818Z,1007.79
2017-08-02T04:18:02.237Z,1007.84
2017-08-02T04:18:42.864Z,1007.82
2017-08-02T04:19:23.315Z,1007.89
2017-08-02T04:20:04.073Z,1007.88
2017-08-02T04:20:44.404Z,1007.87
2017-08-02T04:21:24.944Z,1007.9
2017-08-02T04:22:05.402Z,1007.85
2017-08-02T04:22:45.839Z,1007.87
2017-08-02T04:23:26.523Z,1007.83
2017-08-02T04:24:06.646Z,1007.75
2017-08-02T04:24:47.007Z,1007.76
2017-08-02T04:25:27.445Z,1007.69
2017-08-02T04:26:07.843Z,1007.68
2017-08-02T04:26:48.502Z,1007.66
2017-08-02T04:27:28.644Z,1007.65
2017-08-02T04:28:09.250Z,1007.67
2017-08-02T04:28:49.705Z,1007.66
2017-08-02T04:29:30.065Z,1007.7
2017-08-02T04:30:10.579Z,1007.74
2017-08-02T04:30:51.126Z,1007.76
2017-08-02T04:31:31.297Z,1007.73
2017-08-02T04:32:11.962Z,1007.75
2017-08-02T04:32:52.368Z,1007.74
2017-08-02T04:33:32.718Z,1007.74
2017-08-02T04:34:13.106Z,1007.79
2017-08-02T04:34:53.731Z,1007.8
2017-08-02T04:35:34.170Z,1007.8
2017-08-02T04:36:14.679Z,1007.76
2017-08-02T04:36:55.174Z,1007.8
2017-08-02T04:37:35.677Z,1007.79
2017-08-02T04:38:16.011Z,1007.76
2017-08-02T04:38:56.631Z,1007.8
2017-08-02T04:39:37.237Z,1007.83
2017-08-02T04:40:17.987Z,1007.83
2017-08-02T04:40:58.619Z,1007.85
2017-08-02T04:41:39.021Z,1007.86
2017-08-02T04:42:19.400Z,1007.9
2017-08-02T04:42:59.959Z,1007.94
2017-08-02T04:43:40.586Z,1007.95
2017-08-02T04:44:20.839Z,1007.97
2017-08-02T04:45:01.198Z,1007.98
2017-08-02T04:45:41.726Z,1007.94
2017-08-02T04:46:22.108Z,1007.96
2017-08-02T04:47:02.607Z,1007.97
2017-08-02T04:47:42.956Z,1007.97
2017-08-02T04:48:23.405Z,1007.98
2017-08-02T04:49:03.861Z,1008
2017-08-02T04:53:29.258Z,1008.04
2017-08-02T04:55:47.742Z,1007.97
2017-08-02T04:56:28.107Z,1007.92
2017-08-02T04:57:08.538Z,1007.86
2017-08-02T04:57:48.914Z,1007.85
2017-08-02T04:58:29.372Z,1007.86
2017-08-02T04:59:09.749Z,1007.86
2017-08-02T04:59:50.209Z,1007.8
2017-08-02T05:00:30.608Z,1007.76
2017-08-02T05:01:11.098Z,1007.78
2017-08-02T05:01:51.444Z,1007.78
2017-08-02T05:02:31.896Z,1007.81
2017-08-02T05:03:12.327Z,1007.84
2017-08-02T05:03:52.677Z,1007.86
2017-08-02T05:04:33.160Z,1007.86
2017-08-02T05:05:13.717Z,1007.89
2017-08-02T05:05:54.161Z,1007.95
2017-08-02T05:06:34.606Z,1007.92
2017-08-02T05:07:14.953Z,1007.95
2017-08-02T05:07:55.429Z,1008.02
2017-08-02T05:08:35.858Z,1008.08
2017-08-02T05:09:16.219Z,1008.09
2017-08-02T05:09:56.631Z,1008.07
2017-08-02T05:10:37.109Z,1008.08
2017-08-02T05:11:17.503Z,1008.05
2017-08-02T05:11:58.096Z,1008.02
2017-08-02T05:12:39.129Z,1008.01
2017-08-02T05:13:18.886Z,1007.98
2017-08-02T05:13:59.359Z,1008.02
2017-08-02T05:14:39.791Z,1008.03
2017-08-02T05:15:20.230Z,1008.07
2017-08-02T05:16:00.656Z,1008.06
2017-08-02T05:16:41.154Z,1008.04
2017-08-02T05:17:21.534Z,1008.05
2017-08-02T05:18:01.917Z,1008.07
2017-08-02T05:18:42.338Z,1008.06
2017-08-02T05:19:22.751Z,1008.04
2017-08-02T05:20:03.166Z,1008.07
2017-08-02T05:20:43.676Z,1008.04
2017-08-02T05:21:24.060Z,1008.08
2017-08-02T05:22:04.442Z,1008.15
2017-08-02T05:22:44.843Z,1008.11
2017-08-02T05:23:25.472Z,1008.1
2017-08-02T05:24:05.948Z,1008.13
2017-08-02T05:24:46.298Z,1008.07
2017-08-02T05:25:26.857Z,1008.05
2017-08-02T05:26:07.230Z,1008.11
2017-08-02T05:26:47.714Z,1008.06
2017-08-02T05:27:28.109Z,1008.1
2017-08-02T05:28:08.559Z,1008.09
2017-08-02T05:28:49.071Z,1008.05
2017-08-02T05:29:29.461Z,1008.1
2017-08-02T05:30:09.959Z,1008.1
2017-08-02T05:30:50.353Z,1008.06
2017-08-02T05:36:23.993Z,1008.1
2017-08-02T05:37:04.492Z,1008.1
2017-08-02T05:37:44.932Z,1008.1
2017-08-02T05:38:25.263Z,1008.16
2017-08-02T05:39:05.866Z,1008.19
2017-08-02T05:39:46.331Z,1008.2
2017-08-02T05:42:00.926Z,1008.29
2017-08-02T05:42:41.255Z,1008.34
2017-08-02T05:43:24.397Z,1008.34
2017-08-02T05:45:39.995Z,1008.35
2017-08-02T05:46:20.336Z,1008.34
2017-08-02T05:47:00.765Z,1008.35
2017-08-02T05:47:41.149Z,1008.45
2017-08-02T05:48:21.576Z,1008.37
2017-08-02T05:49:02.125Z,1008.4
2017-08-02T05:49:42.478Z,1008.41
2017-08-02T05:52:03.689Z,1008.37
2017-08-02T05:52:44.893Z,1008.35
2017-08-02T05:53:25.315Z,1008.4
2017-08-02T05:54:05.770Z,1008.34
2017-08-02T05:54:46.128Z,1008.36
2017-08-02T05:55:26.560Z,1008.36
2017-08-02T05:57:56.809Z,1008.34
2017-08-02T05:58:36.796Z,1008.42
2017-08-02T05:59:17.233Z,1008.42
2017-08-02T05:59:57.758Z,1008.5
2017-08-02T06:00:38.111Z,1008.4
2017-08-02T06:01:18.528Z,1008.35
2017-08-02T06:01:59.121Z,1008.28
2017-08-02T06:02:39.415Z,1008.31
2017-08-02T06:07:06.390Z,1008.42
2017-08-02T06:07:46.503Z,1008.33
2017-08-02T06:08:28.494Z,1008.31
2017-08-02T06:09:09.139Z,1008.3
2017-08-02T06:09:49.544Z,1008.3
2017-08-02T06:10:30.819Z,1008.36
2017-08-02T06:11:11.307Z,1008.33
2017-08-02T06:11:51.830Z,1008.31
2017-08-02T06:12:32.257Z,1008.38
2017-08-02T06:13:12.951Z,1008.33
2017-08-02T06:13:53.390Z,1008.35
2017-08-02T06:14:33.931Z,1008.32
2017-08-02T06:15:14.311Z,1008.32
2017-08-02T06:15:54.710Z,1008.29
2017-08-02T06:16:35.137Z,1008.42
2017-08-02T06:17:19.988Z,1008.45
2017-08-02T06:18:01.062Z,1008.4
2017-08-02T06:18:41.854Z,1008.47
2017-08-02T06:20:37.679Z,1008.44
2017-08-02T06:21:20.087Z,1008.47
2017-08-02T06:22:02.100Z,1008.51
2017-08-02T06:22:44.942Z,1008.5
2017-08-02T06:23:25.387Z,1008.57
2017-08-02T06:24:05.794Z,1008.47
2017-08-02T06:24:46.190Z,1008.45
2017-08-02T06:25:26.610Z,1008.64
2017-08-02T06:26:08.068Z,1008.54
2017-08-02T06:26:48.935Z,1008.52
2017-08-02T06:27:29.369Z,1008.65
2017-08-02T06:28:09.821Z,1008.69
2017-08-02T06:28:50.278Z,1008.7
2017-08-02T06:29:30.701Z,1008.68
2017-08-02T06:30:11.071Z,1008.71
2017-08-02T06:33:57.733Z,1008.85
2017-08-02T06:34:37.620Z,1008.81
2017-08-02T06:35:18.068Z,1008.93
2017-08-02T06:35:58.426Z,1009
2017-08-02T06:36:38.889Z,1008.97
2017-08-02T06:37:19.321Z,1009.04
2017-08-02T06:37:59.857Z,1008.74
2017-08-02T06:38:40.283Z,1009.24
2017-08-02T06:39:20.870Z,1009
2017-08-02T06:40:01.332Z,1009.2
2017-08-02T06:40:41.734Z,1009.33
2017-08-02T06:41:22.342Z,1009.51
2017-08-02T06:42:02.864Z,1009.41
2017-08-02T06:42:43.401Z,1009.4
2017-08-02T06:43:23.735Z,1009.4
2017-08-02T06:44:04.211Z,1009.19
2017-08-02T06:44:44.598Z,1009.14
2017-08-02T06:45:25.029Z,1009.15
2017-08-02T06:46:05.379Z,1009.11
2017-08-02T06:46:46.399Z,1009.03
2017-08-02T06:47:27.357Z,1009.1
2017-08-02T06:48:08.217Z,1009.12
2017-08-02T06:48:48.638Z,1009.16
2017-08-02T06:49:30.304Z,1009.17
2017-08-02T06:50:11.305Z,1009.29
2017-08-02T06:50:52.567Z,1009.4
2017-08-02T06:51:33.207Z,1009.38
2017-08-02T06:52:20.656Z,1009.38
2017-08-02T06:53:01.768Z,1009.34
2017-08-02T06:53:51.052Z,1009.38
2017-08-02T06:54:30.690Z,1009.42
2017-08-02T06:55:11.316Z,1009.35
2017-08-02T06:56:07.095Z,1009.32
2017-08-02T06:56:48.855Z,1009.42
2017-08-02T06:57:29.463Z,1009.39
2017-08-02T06:58:09.803Z,1009.35
2017-08-02T06:58:50.347Z,1009.35
2017-08-02T06:59:30.760Z,1009.33
2017-08-02T07:00:11.230Z,1009.3
2017-08-02T07:00:51.621Z,1009.36
2017-08-02T07:01:32.017Z,1009.21
2017-08-02T07:02:12.769Z,1009.23
2017-08-02T07:02:53.333Z,1009.26
2017-08-02T07:03:34.431Z,1009.34
2017-08-02T07:04:14.818Z,1009.42
2017-08-02T07:04:55.247Z,1009.4
2017-08-02T07:05:35.816Z,1009.43
2017-08-02T07:06:16.338Z,1009.41
2017-08-02T07:06:56.942Z,1009.41
2017-08-02T07:09:30.596Z,1009.53
2017-08-02T07:10:11.241Z,1009.6
2017-08-02T07:10:52.223Z,1009.67
2017-08-02T07:11:32.576Z,1009.56
2017-08-02T07:12:13.278Z,1009.5
2017-08-02T07:12:54.349Z,1009.49
2017-08-02T07:15:40.436Z,1009.45
2017-08-02T07:16:20.939Z,1009.34
2017-08-02T07:17:01.489Z,1009.35
2017-08-02T07:17:42.029Z,1009.36
2017-08-02T07:18:22.591Z,1009.41
2017-08-02T07:19:03.939Z,1009.46
2017-08-02T07:19:44.345Z,1009.47
2017-08-02T07:20:24.905Z,1009.47
2017-08-02T07:21:06.019Z,1009.49
2017-08-02T07:21:46.289Z,1009.5
2017-08-02T07:22:26.673Z,1009.53
2017-08-02T07:23:07.268Z,1009.52
2017-08-02T07:23:47.977Z,1009.53
2017-08-02T07:24:28.530Z,1009.5
2017-08-02T07:25:09.624Z,1009.52
2017-08-02T07:25:50.052Z,1009.56
2017-08-02T07:26:30.477Z,1009.59
2017-08-02T07:27:11.146Z,1009.62
2017-08-02T07:27:51.568Z,1009.66
2017-08-02T07:28:32.148Z,1009.72
2017-08-02T07:29:13.236Z,1009.79
2017-08-02T07:29:53.640Z,1009.85
2017-08-02T07:30:34.086Z,1009.9
2017-08-02T07:31:14.495Z,1009.85
2017-08-02T07:31:55.022Z,1009.8
2017-08-02T07:32:35.632Z,1009.76
2017-08-02T07:33:16.090Z,1009.76
2017-08-02T07:33:56.562Z,1009.8
2017-08-02T07:34:37.129Z,1009.8
2017-08-02T07:35:17.654Z,1009.72
2017-08-02T07:35:58.179Z,1009.68
2017-08-02T07:36:39.259Z,1009.69
2017-08-02T07:37:19.710Z,1009.76
2017-08-02T07:38:00.271Z,1009.72
2017-08-02T07:38:41.213Z,1009.83
2017-08-02T07:39:21.691Z,1009.79
2017-08-02T07:40:02.552Z,1009.87
2017-08-02T07:40:43.096Z,1009.78
2017-08-02T07:41:23.659Z,1009.59
2017-08-02T07:42:04.211Z,1009.51
2017-08-02T07:42:44.911Z,1009.55
2017-08-02T07:43:25.326Z,1009.63
2017-08-02T07:44:05.961Z,1009.71
2017-08-02T07:44:46.745Z,1009.88
2017-08-02T07:45:26.932Z,1009.9
2017-08-02T07:46:08.215Z,1009.96
2017-08-02T07:46:49.503Z,1009.96
2017-08-02T07:47:30.018Z,1009.87
2017-08-02T07:48:10.628Z,1009.58
2017-08-02T07:48:51.128Z,1009.54
2017-08-02T07:49:31.777Z,1009.65
2017-08-02T07:50:12.889Z,1009.77
2017-08-02T07:50:53.299Z,1009.83
2017-08-02T07:51:33.945Z,1009.94
2017-08-02T07:52:14.384Z,1010.07
2017-08-02T07:52:55.551Z,1010.02
2017-08-02T07:53:36.092Z,1009.88
2017-08-02T07:54:16.832Z,1009.86
2017-08-02T07:54:57.016Z,1009.86
2017-08-02T07:55:37.814Z,1009.92
2017-08-02T07:56:21.654Z,1009.84
2017-08-02T07:57:01.928Z,1009.88
2017-08-02T07:57:42.819Z,1009.92
2017-08-02T07:58:23.715Z,1009.93
2017-08-02T07:59:06.406Z,1009.98
2017-08-02T07:59:49.492Z,1010.02
2017-08-02T08:00:29.909Z,1009.97
2017-08-02T08:01:10.833Z,1010.06
2017-08-02T08:01:51.525Z,1009.99
2017-08-02T08:02:32.303Z,1010.12
2017-08-02T08:03:12.985Z,1010.06
2017-08-02T08:03:53.438Z,1010.25
2017-08-02T08:04:34.029Z,1010.41
2017-08-02T08:05:14.578Z,1010.48
2017-08-02T08:05:54.955Z,1010.33
2017-08-02T08:06:35.678Z,1010.25
2017-08-02T08:07:16.169Z,1010.07
2017-08-02T08:07:57.064Z,1009.8
2017-08-02T08:08:37.686Z,1009.72
2017-08-02T08:09:18.181Z,1009.6
2017-08-02T08:09:58.798Z,1009.52
2017-08-02T08:10:39.905Z,1009.54
2017-08-02T08:11:20.362Z,1009.6
2017-08-02T08:12:00.985Z,1009.66
2017-08-02T08:12:41.620Z,1009.86
2017-08-02T08:13:22.120Z,1009.92
2017-08-02T08:14:02.682Z,1010.08
2017-08-02T08:14:43.136Z,1010.09
2017-08-02T08:18:19.788Z,1009.94
2017-08-02T08:20:26.831Z,1010.04
2017-08-02T08:21:24.059Z,1010.14
2017-08-02T08:22:19.599Z,1010.37
2017-08-02T08:23:18.829Z,1010.55
2017-08-02T08:24:13.499Z,1010.62
2017-08-02T08:25:11.980Z,1010.34
2017-08-02T08:27:28.149Z,1009.52
2017-08-02T08:28:08.459Z,1009.42
2017-08-02T08:28:48.752Z,1009.48
2017-08-02T08:29:29.858Z,1009.52
2017-08-02T08:30:10.258Z,1009.55
2017-08-02T08:30:52.545Z,1009.54
2017-08-02T08:31:33.099Z,1009.61
2017-08-02T08:34:12.595Z,1009.44
2017-08-02T08:34:53.683Z,1009.49
2017-08-02T08:35:36.838Z,1009.5
2017-08-02T08:36:17.266Z,1009.57
2017-08-02T08:36:57.953Z,1009.63
2017-08-02T08:37:38.460Z,1009.65
2017-08-02T08:38:19.335Z,1009.67
2017-08-02T08:39:00.010Z,1009.69
2017-08-02T08:39:40.460Z,1009.6
2017-08-02T08:40:21.470Z,1009.67
2017-08-02T08:41:02.112Z,1009.6
2017-08-02T08:41:42.984Z,1009.57
2017-08-02T08:42:24.482Z,1009.6
2017-08-02T08:43:06.301Z,1009.66
2017-08-02T08:43:46.485Z,1009.68
2017-08-02T08:47:29.878Z,1009.66
2017-08-02T08:48:27.632Z,1009.65
2017-08-02T08:49:10.794Z,1009.73
2017-08-02T08:49:52.112Z,1009.71
2017-08-02T08:50:33.225Z,1009.79
2017-08-02T08:51:13.726Z,1009.78
2017-08-02T08:51:54.256Z,1009.8
2017-08-02T08:52:35.571Z,1009.82
2017-08-02T08:53:15.150Z,1009.81
2017-08-02T08:56:43.423Z,1010.04
2017-08-02T08:57:28.892Z,1010.06
2017-08-02T08:58:09.323Z,1010.04
2017-08-02T08:58:49.773Z,1010.01
2017-08-02T08:59:30.143Z,1009.89
2017-08-02T09:00:10.663Z,1009.86
2017-08-02T09:00:51.960Z,1009.83
2017-08-02T09:01:33.167Z,1009.82
2017-08-02T09:02:13.881Z,1009.82
2017-08-02T09:02:56.239Z,1009.78
2017-08-02T09:03:36.625Z,1009.74
2017-08-02T09:04:17.055Z,1009.74
2017-08-02T09:04:57.511Z,1009.68
2017-08-02T09:05:37.966Z,1009.65
2017-08-02T09:06:18.534Z,1009.67
2017-08-02T09:06:58.996Z,1009.69
2017-08-02T09:07:39.482Z,1009.71
2017-08-02T09:08:20.136Z,1009.71
2017-08-02T09:09:01.260Z,1009.75
2017-08-02T09:09:41.716Z,1009.77
2017-08-02T09:10:23.905Z,1009.77
2017-08-02T09:11:05.951Z,1009.77
2017-08-02T09:11:46.473Z,1009.76
2017-08-02T09:12:26.995Z,1009.8
2017-08-02T09:13:07.751Z,1009.78
2017-08-02T09:13:48.252Z,1009.85
2017-08-02T09:14:28.705Z,1009.84
2017-08-02T09:15:10.106Z,1009.82
2017-08-02T09:15:50.693Z,1009.82
2017-08-02T09:16:31.649Z,1009.77
2017-08-02T09:17:12.029Z,1009.82
2017-08-02T09:17:52.534Z,1009.85
2017-08-02T09:18:33.839Z,1009.84
2017-08-02T09:19:14.564Z,1009.87
2017-08-02T09:19:54.863Z,1009.95
2017-08-02T09:20:35.228Z,1009.96
2017-08-02T09:21:15.625Z,1009.89